Time;durP1;ratioP1;P1;durP2;ratioP2;P2;SDS_P1;SDS_P2;PMS_P1;PMS_P2;Temp;Humidity;BMP_temperature;BMP_pressure;BME280_temperature;BME280_humidity;BME280_pressure;Samples;Min_cycle;Max_cycle;Signal;HPM_P1;HPM_P2
2023/07/16 00:01:09;;;;;;;6.47;4.70;;;;;;;;;;6214161;23;20024;-59
2023/07/16 00:03:36;;;;;;;7.07;5.07;;;;;;;;;;6213987;23;20090;-60
2023/07/16 00:06:03;;;;;;;6.03;4.57;;;;;;;;;;6214092;23;20025;-59
2023/07/16 00:08:30;;;;;;;6.60;4.70;;;;;;;;;;6214080;23;20103;-60
2023/07/16 00:10:58;;;;;;;7.50;4.68;;;;;;;;;;6214307;23;20024;-59
2023/07/16 00:13:25;;;;;;;6.90;4.90;;;;;;;;;;6214013;23;20021;-59
2023/07/16 00:15:52;;;;;;;8.10;4.78;;;;;;;;;;6213956;23;20032;-59
2023/07/16 00:18:18;;;;;;;5.70;4.38;;;;;;;;;;6214152;23;20075;-59
2023/07/16 00:20:45;;;;;;;7.72;4.75;;;;;;;;;;6214021;23;20021;-59
2023/07/16 00:23:12;;;;;;;5.25;4.20;;;;;;;;;;6213839;23;20028;-60
2023/07/16 00:25:39;;;;;;;6.53;4.05;;;;;;;;;;6214033;23;20025;-57
2023/07/16 00:28:07;;;;;;;5.82;4.55;;;;;;;;;;6213774;23;20025;-60
2023/07/16 00:30:34;;;;;;;7.88;5.30;;;;;;;;;;6213892;23;20028;-60
2023/07/16 00:33:01;;;;;;;6.97;4.35;;;;;;;;;;6213879;23;20024;-61
2023/07/16 00:35:28;;;;;;;7.80;4.55;;;;;;;;;;6213831;23;20032;-61
2023/07/16 00:37:55;;;;;;;5.78;4.10;;;;;;;;;;6214141;23;20075;-59
2023/07/16 00:40:21;;;;;;;6.38;4.50;;;;;;;;;;6213942;23;20029;-60
2023/07/16 00:42:48;;;;;;;6.38;4.35;;;;;;;;;;6214087;23;20515;-61
2023/07/16 00:45:17;;;;;;;6.82;4.53;;;;;;;;;;6213470;23;20031;-61
2023/07/16 00:47:44;;;;;;;5.35;4.15;;;;;;;;;;6214691;23;20113;-61
2023/07/16 00:50:12;;;;;;;6.95;4.82;;;;;;;;;;6213908;23;20028;-61
2023/07/16 00:52:39;;;;;;;5.72;4.82;;;;;;;;;;6216085;23;20024;-59
2023/07/16 00:55:08;;;;;;;6.68;4.35;;;;;;;;;;6215869;23;20017;-60
2023/07/16 00:57:35;;;;;;;7.28;4.93;;;;;;;;;;6215982;23;20112;-59
2023/07/16 01:00:02;;;;;;;7.68;5.47;;;;;;;;;;6215805;23;20095;-61
2023/07/16 01:02:30;;;;;;;7.25;5.20;;;;;;;;;;6215895;23;20032;-59
2023/07/16 01:04:57;;;;;;;6.35;4.78;;;;;;;;;;6215467;23;20024;-60
2023/07/16 01:07:26;;;;;;;7.05;5.38;;;;;;;;;;6215959;23;20500;-61
2023/07/16 01:09:54;;;;;;;8.15;5.72;;;;;;;;;;6215936;23;20024;-60
2023/07/16 01:12:22;;;;;;;8.63;5.38;;;;;;;;;;6215778;23;20063;-61
2023/07/16 01:14:52;;;;;;;7.45;5.78;;;;;;;;;;6215272;23;20025;-61
2023/07/16 01:17:18;;;;;;;7.00;5.40;;;;;;;;;;6215921;23;20063;-60
2023/07/16 01:19:47;;;;;;;7.22;5.40;;;;;;;;;;6215398;23;20456;-59
2023/07/16 01:22:32;;;;;;;7.32;5.78;;;;;;;;;;6215597;23;20024;-60
2023/07/16 01:25:10;;;;;;;7.57;5.18;;;;;;;;;;6215379;23;20456;-61
2023/07/16 01:28:13;;;;;;;6.18;5.28;;;;;;;;;;6215729;23;20028;-61
2023/07/16 01:30:44;;;;;;;9.45;5.90;;;;;;;;;;6164579;23;20506;-59
2023/07/16 01:33:14;;;;;;;8.50;5.50;;;;;;;;;;6215606;23;20021;-61
2023/07/16 01:35:41;;;;;;;7.50;5.75;;;;;;;;;;6215700;23;20511;-61
2023/07/16 01:38:11;;;;;;;6.90;5.60;;;;;;;;;;6215391;23;20347;-61
2023/07/16 01:40:37;;;;;;;8.95;5.28;;;;;;;;;;6215726;23;20510;-61
2023/07/16 01:43:04;;;;;;;9.07;5.75;;;;;;;;;;6215466;23;20024;-61
2023/07/16 01:45:31;;;;;;;7.07;5.35;;;;;;;;;;6215639;23;20330;-59
2023/07/16 01:48:13;;;;;;;7.10;5.70;;;;;;;;;;6215470;23;20020;-59
2023/07/16 01:50:40;;;;;;;6.82;5.72;;;;;;;;;;6215374;23;20028;-61
2023/07/16 01:53:07;;;;;;;8.15;5.75;;;;;;;;;;6214942;23;20094;-60
2023/07/16 01:55:33;;;;;;;8.10;5.97;;;;;;;;;;6215559;23;20024;-60
2023/07/16 01:58:00;;;;;;;9.25;6.25;;;;;;;;;;6215238;23;20021;-59
2023/07/16 02:00:27;;;;;;;7.95;5.60;;;;;;;;;;6215366;23;20024;-60
2023/07/16 02:02:54;;;;;;;8.10;5.80;;;;;;;;;;6214600;23;20024;-59
2023/07/16 02:05:22;;;;;;;9.65;6.20;;;;;;;;;;6214926;23;20530;-60
2023/07/16 02:07:49;;;;;;;7.50;5.82;;;;;;;;;;6215207;23;20415;-59
2023/07/16 02:10:16;;;;;;;10.00;5.95;;;;;;;;;;6215304;23;20078;-60
2023/07/16 02:12:42;;;;;;;9.45;5.75;;;;;;;;;;6214950;23;20031;-61
2023/07/16 02:15:10;;;;;;;7.60;6.18;;;;;;;;;;6214971;23;20020;-60
2023/07/16 02:17:37;;;;;;;8.40;5.53;;;;;;;;;;6215367;23;20020;-59
2023/07/16 02:20:05;;;;;;;8.13;5.97;;;;;;;;;;6215419;23;20514;-60
2023/07/16 02:22:34;;;;;;;7.68;6.22;;;;;;;;;;6214987;23;20028;-60
2023/07/16 02:25:01;;;;;;;7.68;5.97;;;;;;;;;;6214858;23;20021;-60
2023/07/16 02:27:28;;;;;;;6.97;5.63;;;;;;;;;;6214968;23;20333;-60
2023/07/16 02:29:55;;;;;;;6.95;6.15;;;;;;;;;;6214904;23;20071;-61
2023/07/16 02:32:21;;;;;;;8.55;6.07;;;;;;;;;;6214989;23;20029;-61
2023/07/16 02:34:48;;;;;;;7.47;6.15;;;;;;;;;;6214427;23;20075;-60
2023/07/16 02:37:16;;;;;;;8.45;6.05;;;;;;;;;;6214926;23;20024;-60
2023/07/16 02:39:46;;;;;;;6.72;6.00;;;;;;;;;;6215187;23;20017;-60
2023/07/16 02:42:13;;;;;;;8.95;6.22;;;;;;;;;;6214866;23;20103;-60
2023/07/16 02:44:43;;;;;;;8.13;5.95;;;;;;;;;;6214403;23;20046;-61
2023/07/16 02:47:10;;;;;;;9.93;5.82;;;;;;;;;;6214818;23;20071;-60
2023/07/16 02:49:37;;;;;;;9.80;6.20;;;;;;;;;;6214845;23;20028;-59
2023/07/16 02:52:04;;;;;;;8.38;5.90;;;;;;;;;;6214907;23;20111;-61
2023/07/16 02:54:31;;;;;;;8.10;5.72;;;;;;;;;;6214328;23;20102;-61
2023/07/16 02:56:59;;;;;;;6.93;5.35;;;;;;;;;;6214890;23;20436;-60
2023/07/16 02:59:26;;;;;;;6.75;5.47;;;;;;;;;;6214922;23;20021;-60
2023/07/16 03:01:53;;;;;;;7.75;5.75;;;;;;;;;;6215227;23;20028;-60
2023/07/16 03:04:20;;;;;;;6.97;6.10;;;;;;;;;;6214204;23;20029;-60
2023/07/16 03:06:47;;;;;;;7.65;6.10;;;;;;;;;;6214937;23;20029;-61
2023/07/16 03:09:14;;;;;;;7.65;5.60;;;;;;;;;;6214717;23;20024;-61
2023/07/16 03:11:40;;;;;;;7.18;5.63;;;;;;;;;;6214609;23;20396;-60
2023/07/16 03:14:09;;;;;;;7.45;5.63;;;;;;;;;;6213868;23;20344;-59
2023/07/16 03:16:35;;;;;;;7.22;5.35;;;;;;;;;;6214454;23;20024;-61
2023/07/16 03:19:02;;;;;;;6.75;5.47;;;;;;;;;;6214536;23;20021;-61
2023/07/16 03:21:29;;;;;;;6.88;5.63;;;;;;;;;;6214759;23;20055;-61
2023/07/16 03:23:56;;;;;;;7.35;5.07;;;;;;;;;;6214085;23;20337;-61
2023/07/16 03:26:23;;;;;;;7.95;5.43;;;;;;;;;;6214454;23;20075;-61
2023/07/16 03:28:49;;;;;;;7.45;5.32;;;;;;;;;;6214506;23;20356;-60
2023/07/16 03:31:17;;;;;;;8.35;5.50;;;;;;;;;;6214621;23;20118;-61
2023/07/16 03:33:44;;;;;;;7.10;5.40;;;;;;;;;;6213966;23;20024;-61
2023/07/16 03:36:11;;;;;;;7.90;5.38;;;;;;;;;;6214364;23;20124;-61
2023/07/16 03:38:38;;;;;;;7.53;5.80;;;;;;;;;;6214281;23;20020;-61
2023/07/16 03:41:04;;;;;;;7.43;5.72;;;;;;;;;;6214075;23;20380;-59
2023/07/16 03:43:31;;;;;;;6.35;5.05;;;;;;;;;;6214119;23;20449;-61
2023/07/16 03:45:58;;;;;;;6.00;4.93;;;;;;;;;;6214451;23;20028;-60
2023/07/16 03:48:26;;;;;;;7.32;4.35;;;;;;;;;;6214462;23;20028;-61
2023/07/16 03:50:53;;;;;;;6.95;3.90;;;;;;;;;;6214423;23;20052;-61
2023/07/16 03:53:20;;;;;;;5.53;4.13;;;;;;;;;;6214075;23;20017;-60
2023/07/16 03:55:47;;;;;;;5.28;3.75;;;;;;;;;;6214353;23;20028;-60
2023/07/16 03:58:13;;;;;;;6.13;3.85;;;;;;;;;;6214101;23;20024;-61
2023/07/16 04:00:43;;;;;;;5.22;3.40;;;;;;;;;;6214231;23;20028;-61
2023/07/16 04:03:10;;;;;;;;;;;;;;;;;;6214438;23;20024;-61
2023/07/16 04:05:38;;;;;;;4.78;3.22;;;;;;;;;;6213949;23;19974;-60
2023/07/16 04:08:05;;;;;;;5.35;2.40;;;;;;;;;;6214125;23;20024;-61
2023/07/16 04:10:32;;;;;;;5.97;2.78;;;;;;;;;;6214199;23;20028;-60
2023/07/16 04:12:59;;;;;;;3.50;1.70;;;;;;;;;;6213851;23;20348;-60
2023/07/16 04:15:26;;;;;;;3.38;1.80;;;;;;;;;;6214101;23;20025;-61
2023/07/16 04:17:52;;;;;;;2.78;1.70;;;;;;;;;;6214203;23;20021;-61
2023/07/16 04:20:20;;;;;;;2.92;1.90;;;;;;;;;;6214382;23;20032;-60
2023/07/16 04:22:48;;;;;;;3.40;1.88;;;;;;;;;;6214114;23;20029;-60
2023/07/16 04:25:15;;;;;;;3.38;1.90;;;;;;;;;;6213480;23;20452;-59
2023/07/16 04:27:43;;;;;;;3.90;2.05;;;;;;;;;;6214113;23;20028;-60
2023/07/16 04:30:11;;;;;;;4.55;2.30;;;;;;;;;;6213999;23;20360;-60
2023/07/16 04:32:38;;;;;;;5.25;2.60;;;;;;;;;;6213906;23;20029;-60
2023/07/16 04:35:05;;;;;;;3.70;2.20;;;;;;;;;;6213316;23;20025;-59
2023/07/16 04:37:32;;;;;;;3.50;2.03;;;;;;;;;;6213987;23;20099;-60
2023/07/16 04:40:00;;;;;;;3.58;2.28;;;;;;;;;;6213915;23;20028;-57
2023/07/16 04:42:27;;;;;;;6.57;2.97;;;;;;;;;;6213938;23;20399;-60
2023/07/16 04:44:54;;;;;;;4.45;2.55;;;;;;;;;;6213504;23;20021;-60
2023/07/16 04:47:21;;;;;;;5.38;3.03;;;;;;;;;;6214009;23;20075;-59
2023/07/16 04:49:48;;;;;;;4.50;2.58;;;;;;;;;;6213885;23;20368;-60
2023/07/16 04:52:14;;;;;;;4.95;3.20;;;;;;;;;;6213840;23;20535;-61
2023/07/16 04:54:41;;;;;;;5.32;3.10;;;;;;;;;;6213663;23;20032;-60
2023/07/16 04:57:09;;;;;;;4.30;3.20;;;;;;;;;;6213941;23;20087;-61
2023/07/16 04:59:36;;;;;;;4.25;3.00;;;;;;;;;;6213683;23;20021;-60
2023/07/16 05:02:05;;;;;;;6.60;3.40;;;;;;;;;;6213706;23;20020;-60
2023/07/16 05:04:32;;;;;;;5.10;3.50;;;;;;;;;;6213398;23;20350;-61
2023/07/16 05:06:59;;;;;;;5.22;3.50;;;;;;;;;;6213737;23;20295;-60
2023/07/16 05:09:26;;;;;;;6.82;3.58;;;;;;;;;;6213737;23;20024;-61
2023/07/16 05:11:53;;;;;;;4.75;2.58;;;;;;;;;;6213865;23;20021;-61
2023/07/16 05:14:21;;;;;;;5.10;3.13;;;;;;;;;;6213662;23;20021;-58
2023/07/16 05:16:48;;;;;;;4.55;2.63;;;;;;;;;;6213714;23;20028;-60
2023/07/16 05:19:14;;;;;;;6.07;4.03;;;;;;;;;;6213616;23;20020;-61
2023/07/16 05:21:41;;;;;;;7.38;3.63;;;;;;;;;;6214082;23;20116;-61
2023/07/16 05:24:08;;;;;;;5.57;3.38;;;;;;;;;;6213729;23;20349;-58
2023/07/16 05:26:35;;;;;;;4.40;2.97;;;;;;;;;;6213221;23;20471;-57
2023/07/16 05:29:02;;;;;;;4.07;2.70;;;;;;;;;;6213490;23;20024;-60
2023/07/16 05:31:30;;;;;;;4.20;2.55;;;;;;;;;;6213591;23;20025;-60
2023/07/16 05:33:57;;;;;;;3.83;2.70;;;;;;;;;;6213254;23;20067;-58
2023/07/16 05:36:23;;;;;;;4.00;2.58;;;;;;;;;;6213281;23;20039;-60
2023/07/16 05:38:50;;;;;;;4.45;2.80;;;;;;;;;;6215371;23;20021;-55
2023/07/16 05:41:17;;;;;;;5.18;2.55;;;;;;;;;;6215413;23;20024;-57
2023/07/16 05:43:44;;;;;;;4.97;2.58;;;;;;;;;;6215052;23;20021;-57
2023/07/16 05:46:11;;;;;;;4.45;3.05;;;;;;;;;;6215232;23;20403;-60
2023/07/16 05:48:39;;;;;;;4.78;3.05;;;;;;;;;;6215135;23;20032;-57
2023/07/16 05:51:06;;;;;;;4.57;2.53;;;;;;;;;;6215579;23;20463;-56
2023/07/16 05:53:32;;;;;;;4.72;2.90;;;;;;;;;;6215189;23;20024;-58
2023/07/16 05:55:59;;;;;;;4.45;2.65;;;;;;;;;;6215082;23;20025;-57
2023/07/16 05:58:26;;;;;;;4.88;2.70;;;;;;;;;;6215531;23;20056;-57
2023/07/16 06:00:53;;;;;;;4.47;2.80;;;;;;;;;;6215136;23;20032;-58
2023/07/16 06:03:20;;;;;;;4.57;2.60;;;;;;;;;;6215046;23;20020;-57
2023/07/16 06:05:48;;;;;;;4.20;2.47;;;;;;;;;;6214818;23;20025;-58
2023/07/16 06:08:15;;;;;;;4.85;2.53;;;;;;;;;;6215432;23;20075;-58
2023/07/16 06:10:42;;;;;;;5.13;2.50;;;;;;;;;;6215152;23;20078;-57
2023/07/16 06:13:08;;;;;;;4.88;2.97;;;;;;;;;;6214925;23;20054;-60
2023/07/16 06:15:37;;;;;;;4.90;2.75;;;;;;;;;;6215007;23;20024;-58
2023/07/16 06:18:04;;;;;;;4.35;2.70;;;;;;;;;;6215055;23;20084;-62
2023/07/16 06:20:30;;;;;;;4.55;2.83;;;;;;;;;;6215398;23;20021;-61
2023/07/16 06:22:58;;;;;;;4.45;2.50;;;;;;;;;;6214751;23;20024;-60
2023/07/16 06:25:25;;;;;;;4.35;2.83;;;;;;;;;;6215236;23;20063;-60
2023/07/16 06:27:52;;;;;;;4.80;2.75;;;;;;;;;;6215110;23;20031;-60
2023/07/16 06:30:19;;;;;;;4.55;2.60;;;;;;;;;;6215090;23;20036;-57
2023/07/16 06:32:46;;;;;;;4.30;2.88;;;;;;;;;;6215299;23;20024;-64
2023/07/16 06:35:13;;;;;;;3.95;2.60;;;;;;;;;;6213954;23;20028;-58
2023/07/16 06:37:39;;;;;;;5.10;2.72;;;;;;;;;;6215086;23;20044;-59
2023/07/16 06:40:09;;;;;;;4.03;2.33;;;;;;;;;;6214792;23;20025;-60
2023/07/16 06:42:36;;;;;;;3.75;2.70;;;;;;;;;;6215552;23;20043;-60
2023/07/16 06:45:03;;;;;;;4.95;3.40;;;;;;;;;;6214599;23;20532;-59
2023/07/16 06:47:29;;;;;;;5.45;2.60;;;;;;;;;;6214836;23;20028;-60
2023/07/16 06:49:56;;;;;;;4.63;2.70;;;;;;;;;;6214617;23;20024;-60
2023/07/16 06:52:27;;;;;;;5.15;2.85;;;;;;;;;;6214743;23;20453;-59
2023/07/16 06:54:54;;;;;;;3.67;2.65;;;;;;;;;;6214719;23;20078;-60
2023/07/16 06:57:22;;;;;;;4.18;2.88;;;;;;;;;;6214806;23;20024;-59
2023/07/16 06:59:49;;;;;;;4.35;2.58;;;;;;;;;;6214743;23;20024;-58
2023/07/16 07:02:17;;;;;;;4.22;3.13;;;;;;;;;;6214837;23;20104;-60
2023/07/16 07:04:44;;;;;;;5.05;3.42;;;;;;;;;;6214391;23;20025;-60
2023/07/16 07:07:10;;;;;;;4.75;3.13;;;;;;;;;;6214699;23;20029;-60
2023/07/16 07:09:37;;;;;;;4.72;2.85;;;;;;;;;;6214746;23;20477;-60
2023/07/16 07:12:05;;;;;;;3.95;2.50;;;;;;;;;;6214409;23;20135;-58
2023/07/16 07:14:34;;;;;;;3.63;2.60;;;;;;;;;;6214435;23;20031;-60
2023/07/16 07:17:01;;;;;;;4.00;2.60;;;;;;;;;;6214593;23;20102;-60
2023/07/16 07:19:28;;;;;;;4.78;2.65;;;;;;;;;;6214667;23;20020;-60
2023/07/16 07:21:54;;;;;;;4.30;2.72;;;;;;;;;;6214431;23;20385;-59
2023/07/16 07:24:21;;;;;;;4.45;2.35;;;;;;;;;;6214106;23;20028;-60
2023/07/16 07:26:48;;;;;;;3.17;1.92;;;;;;;;;;6214627;23;20078;-59
2023/07/16 07:29:15;;;;;;;3.22;2.00;;;;;;;;;;6214849;23;20452;-59
2023/07/16 07:31:43;;;;;;;3.35;1.95;;;;;;;;;;6214619;23;20028;-61
2023/07/16 07:34:10;;;;;;;3.80;2.05;;;;;;;;;;6214222;23;20522;-60
2023/07/16 07:36:37;;;;;;;4.55;2.40;;;;;;;;;;6214461;23;20094;-60
2023/07/16 07:39:05;;;;;;;4.20;2.20;;;;;;;;;;6214522;23;20543;-61
2023/07/16 07:41:32;;;;;;;5.18;2.28;;;;;;;;;;6214023;23;20036;-60
2023/07/16 07:43:59;;;;;;;3.33;1.92;;;;;;;;;;6214059;23;20027;-61
2023/07/16 07:46:26;;;;;;;3.35;2.00;;;;;;;;;;6214413;23;20527;-61
2023/07/16 07:48:54;;;;;;;4.93;1.90;;;;;;;;;;6214715;23;20046;-60
2023/07/16 07:51:21;;;;;;;3.75;2.00;;;;;;;;;;6213838;23;20036;-60
2023/07/16 07:53:48;;;;;;;3.22;1.92;;;;;;;;;;6213972;23;20100;-61
2023/07/16 07:56:15;;;;;;;3.38;2.13;;;;;;;;;;6214134;23;20029;-61
2023/07/16 07:58:42;;;;;;;4.15;1.95;;;;;;;;;;6214269;23;20021;-61
2023/07/16 08:01:09;;;;;;;3.30;1.90;;;;;;;;;;6213693;23;20070;-61
2023/07/16 08:03:36;;;;;;;4.07;1.90;;;;;;;;;;6213689;23;20061;-59
2023/07/16 08:06:04;;;;;;;3.55;1.80;;;;;;;;;;6214033;23;20025;-61
2023/07/16 08:08:31;;;;;;;3.17;1.80;;;;;;;;;;6213918;23;20020;-61
2023/07/16 08:10:58;;;;;;;3.95;1.98;;;;;;;;;;6214047;23;20028;-60
2023/07/16 08:13:25;;;;;;;3.28;1.70;;;;;;;;;;6213454;23;20078;-59
2023/07/16 08:15:51;;;;;;;4.68;1.92;;;;;;;;;;6213875;23;20024;-61
2023/07/16 08:18:18;;;;;;;2.70;1.52;;;;;;;;;;6213829;23;20024;-61
2023/07/16 08:20:45;;;;;;;5.40;2.20;;;;;;;;;;6214145;23;20035;-60
2023/07/16 08:23:13;;;;;;;4.03;1.90;;;;;;;;;;6213246;23;20051;-57
2023/07/16 08:25:40;;;;;;;3.38;1.90;;;;;;;;;;6214065;23;20024;-60
2023/07/16 08:28:07;;;;;;;3.45;1.90;;;;;;;;;;6213748;23;20028;-60
2023/07/16 08:30:34;;;;;;;3.00;1.83;;;;;;;;;;6213972;23;20115;-58
2023/07/16 08:33:04;;;;;;;3.97;1.98;;;;;;;;;;6213631;23;20367;-60
2023/07/16 08:35:30;;;;;;;3.05;1.80;;;;;;;;;;6213389;23;20033;-60
2023/07/16 08:37:57;;;;;;;2.80;1.63;;;;;;;;;;6213533;23;20334;-60
2023/07/16 08:40:27;;;;;;;2.58;1.50;;;;;;;;;;6213750;23;20020;-60
2023/07/16 08:42:58;;;;;;;3.55;1.70;;;;;;;;;;6213704;23;20028;-60
2023/07/16 08:45:29;;;;;;;2.42;1.42;;;;;;;;;;6213660;23;20333;-55
2023/07/16 08:47:56;;;;;;;3.10;1.60;;;;;;;;;;6214190;23;20395;-61
2023/07/16 08:50:23;;;;;;;3.17;1.92;;;;;;;;;;6213778;23;20025;-60
2023/07/16 08:52:50;;;;;;;2.78;1.45;;;;;;;;;;6213431;23;20452;-61
2023/07/16 08:55:18;;;;;;;3.55;2.22;;;;;;;;;;6213278;23;20025;-60
2023/07/16 08:57:46;;;;;;;4.28;1.95;;;;;;;;;;6213645;23;20028;-61
2023/07/16 09:00:15;;;;;;;2.75;1.80;;;;;;;;;;6213634;23;20020;-61
2023/07/16 09:02:42;;;;;;;3.83;1.80;;;;;;;;;;6213567;23;20024;-59
2023/07/16 09:05:10;;;;;;;3.20;1.92;;;;;;;;;;6213805;23;20020;-56
2023/07/16 09:07:37;;;;;;;2.42;1.63;;;;;;;;;;6213894;23;20087;-60
2023/07/16 09:10:05;;;;;;;2.58;1.50;;;;;;;;;;6214041;23;20107;-58
2023/07/16 09:12:31;;;;;;;3.10;1.80;;;;;;;;;;6214692;23;20036;-59
2023/07/16 09:15:00;;;;;;;2.72;1.80;;;;;;;;;;6215541;23;20349;-60
2023/07/16 09:17:26;;;;;;;2.47;1.80;;;;;;;;;;6215322;23;20408;-59
2023/07/16 09:19:53;;;;;;;2.65;1.80;;;;;;;;;;6215788;23;20075;-60
2023/07/16 09:22:21;;;;;;;3.25;1.90;;;;;;;;;;6215676;23;20029;-60
2023/07/16 09:24:48;;;;;;;3.03;1.83;;;;;;;;;;6215013;23;20024;-60
2023/07/16 09:27:15;;;;;;;3.75;2.08;;;;;;;;;;6215456;23;20025;-59
2023/07/16 09:29:42;;;;;;;3.22;1.92;;;;;;;;;;6215596;23;20099;-60
2023/07/16 09:32:10;;;;;;;3.40;1.80;;;;;;;;;;6215564;23;20025;-60
2023/07/16 09:34:37;;;;;;;3.97;1.90;;;;;;;;;;6215702;23;20094;-58
2023/07/16 09:37:06;;;;;;;3.08;1.60;;;;;;;;;;6215748;23;20021;-59
2023/07/16 09:39:34;;;;;;;3.03;1.85;;;;;;;;;;6215593;23;20021;-59
2023/07/16 09:42:02;;;;;;;3.03;1.70;;;;;;;;;;6215692;23;20028;-58
2023/07/16 09:44:30;;;;;;;2.92;1.90;;;;;;;;;;6215196;23;20071;-59
2023/07/16 09:46:57;;;;;;;2.88;1.80;;;;;;;;;;6216154;23;20024;-60
2023/07/16 09:49:29;;;;;;;3.80;2.15;;;;;;;;;;6215561;23;20020;-59
2023/07/16 09:51:57;;;;;;;4.38;2.00;;;;;;;;;;6215056;23;20024;-59
2023/07/16 09:54:26;;;;;;;3.05;1.77;;;;;;;;;;6215076;23;20329;-62
2023/07/16 09:56:59;;;;;;;2.55;1.50;;;;;;;;;;6215766;23;20452;-58
2023/07/16 09:59:29;;;;;;;3.20;1.75;;;;;;;;;;6215408;23;20107;-59
2023/07/16 10:01:57;;;;;;;3.47;1.92;;;;;;;;;;6216360;23;20047;-60
2023/07/16 10:04:26;;;;;;;3.05;1.70;;;;;;;;;;6215015;23;20020;-59
2023/07/16 10:06:54;;;;;;;3.40;2.00;;;;;;;;;;6215496;23;20364;-59
2023/07/16 10:09:37;;;;;;;3.13;1.90;;;;;;;;;;6216076;23;20087;-59
2023/07/16 10:12:14;;;;;;;2.75;1.90;;;;;;;;;;6215332;23;20071;-63
2023/07/16 10:14:42;;;;;;;3.22;1.60;;;;;;;;;;6214904;23;20032;-60
2023/07/16 10:17:13;;;;;;;2.80;1.80;;;;;;;;;;6215519;23;20021;-60
2023/07/16 10:19:57;;;;;;;3.72;2.25;;;;;;;;;;6215914;23;20052;-60
2023/07/16 10:22:36;;;;;;;3.40;1.88;;;;;;;;;;6215284;23;20024;-61
2023/07/16 10:25:04;;;;;;;3.78;2.40;;;;;;;;;;6215428;23;20021;-61
2023/07/16 10:27:32;;;;;;;3.30;1.88;;;;;;;;;;6215638;23;20111;-60
2023/07/16 10:30:01;;;;;;;3.25;1.92;;;;;;;;;;6216062;23;20021;-61
2023/07/16 10:32:29;;;;;;;3.40;2.10;;;;;;;;;;6215556;23;20035;-61
2023/07/16 10:34:57;;;;;;;3.22;1.80;;;;;;;;;;6215269;23;20099;-59
2023/07/16 10:37:24;;;;;;;3.58;2.30;;;;;;;;;;6215747;23;20031;-60
2023/07/16 10:39:52;;;;;;;4.65;2.28;;;;;;;;;;6215548;23;20028;-60
2023/07/16 10:42:20;;;;;;;3.85;2.15;;;;;;;;;;6215277;23;20038;-62
2023/07/16 10:44:50;;;;;;;5.90;2.65;;;;;;;;;;6214482;23;20032;-64
2023/07/16 10:47:23;;;;;;;7.88;2.53;;;;;;;;;;6214998;23;20056;-64
2023/07/16 10:49:51;;;;;;;4.25;2.22;;;;;;;;;;6214862;23;20020;-57
2023/07/16 10:52:20;;;;;;;3.47;1.80;;;;;;;;;;6214558;23;20024;-59
2023/07/16 10:54:48;;;;;;;3.20;1.90;;;;;;;;;;6214604;23;20020;-60
2023/07/16 10:57:16;;;;;;;4.28;2.20;;;;;;;;;;6213947;23;20029;-61
2023/07/16 10:59:44;;;;;;;3.63;2.35;;;;;;;;;;6214480;23;20047;-63
2023/07/16 11:02:13;;;;;;;3.97;2.00;;;;;;;;;;6214862;23;20416;-63
2023/07/16 11:04:40;;;;;;;3.70;2.20;;;;;;;;;;6214158;23;20028;-61
2023/07/16 11:07:09;;;;;;;3.22;1.77;;;;;;;;;;6214120;23;20452;-58
2023/07/16 11:09:42;;;;;;;3.03;1.88;;;;;;;;;;6214895;23;20095;-58
2023/07/16 11:12:10;;;;;;;4.40;2.28;;;;;;;;;;6214842;23;20435;-57
2023/07/16 11:14:37;;;;;;;3.97;2.28;;;;;;;;;;6213968;23;20031;-59
2023/07/16 11:17:08;;;;;;;3.70;1.85;;;;;;;;;;6213936;23;20020;-58
2023/07/16 11:19:39;;;;;;;2.72;1.77;;;;;;;;;;6214550;23;20059;-59
2023/07/16 11:22:07;;;;;;;3.38;2.00;;;;;;;;;;6214364;23;20032;-69
2023/07/16 11:24:40;;;;;;;4.07;2.45;;;;;;;;;;6213509;23;20029;-58
2023/07/16 11:27:13;;;;;;;3.22;2.15;;;;;;;;;;6213529;23;20078;-57
2023/07/16 11:29:41;;;;;;;3.65;2.05;;;;;;;;;;6214790;23;20021;-57
2023/07/16 11:32:09;;;;;;;3.25;2.10;;;;;;;;;;6215190;23;20370;-59
2023/07/16 11:34:36;;;;;;;4.13;2.50;;;;;;;;;;6214052;23;20052;-58
2023/07/16 11:37:10;;;;;;;4.30;3.10;;;;;;;;;;6214311;23;20356;-60
2023/07/16 11:39:39;;;;;;;3.45;2.20;;;;;;;;;;6214200;23;20437;-61
2023/07/16 11:42:08;;;;;;;3.28;2.20;;;;;;;;;;6214160;23;20032;-59
2023/07/16 11:44:36;;;;;;;5.40;2.70;;;;;;;;;;6213924;23;20518;-58
2023/07/16 11:47:04;;;;;;;4.43;2.55;;;;;;;;;;6214614;23;20043;-61
2023/07/16 11:49:31;;;;;;;4.10;2.60;;;;;;;;;;6214817;23;20020;-59
2023/07/16 11:51:59;;;;;;;3.65;2.17;;;;;;;;;;6214931;23;20100;-59
2023/07/16 11:54:26;;;;;;;3.45;2.47;;;;;;;;;;6214077;23;20027;-59
2023/07/16 11:56:54;;;;;;;4.13;2.40;;;;;;;;;;6214607;23;20024;-60
2023/07/16 11:59:21;;;;;;;4.07;2.30;;;;;;;;;;6214202;23;20024;-59
2023/07/16 12:01:50;;;;;;;2.95;1.90;;;;;;;;;;6213965;23;20036;-58
2023/07/16 12:04:18;;;;;;;4.13;2.45;;;;;;;;;;6214609;23;20021;-58
2023/07/16 12:06:45;;;;;;;3.53;2.17;;;;;;;;;;6215069;23;20087;-59
2023/07/16 12:09:11;;;;;;;4.70;2.20;;;;;;;;;;6214846;23;20325;-59
2023/07/16 12:11:39;;;;;;;4.13;2.00;;;;;;;;;;6214271;23;20632;-59
2023/07/16 12:14:08;;;;;;;4.03;2.30;;;;;;;;;;6213593;23;20031;-59
2023/07/16 12:16:35;;;;;;;3.95;2.05;;;;;;;;;;6213920;23;20028;-56
2023/07/16 12:19:02;;;;;;;4.05;2.17;;;;;;;;;;6214202;23;20024;-57
2023/07/16 12:21:29;;;;;;;3.17;2.35;;;;;;;;;;6214268;23;20020;-58
2023/07/16 12:23:56;;;;;;;4.10;2.03;;;;;;;;;;6213312;23;20075;-59
2023/07/16 12:26:23;;;;;;;4.70;2.38;;;;;;;;;;6213872;23;20031;-59
2023/07/16 12:28:50;;;;;;;3.50;2.25;;;;;;;;;;6213942;23;20070;-56
2023/07/16 12:31:20;;;;;;;4.70;2.92;;;;;;;;;;6213863;23;20079;-58
2023/07/16 12:33:47;;;;;;;4.13;2.30;;;;;;;;;;6213345;23;20062;-57
2023/07/16 12:36:14;;;;;;;4.25;3.13;;;;;;;;;;6213382;23;20510;-59
2023/07/16 12:38:40;;;;;;;3.38;2.38;;;;;;;;;;6213778;23;20021;-57
2023/07/16 12:41:07;;;;;;;3.85;2.22;;;;;;;;;;6213761;23;20024;-58
2023/07/16 12:43:34;;;;;;;4.45;2.50;;;;;;;;;;6213241;23;20502;-59
2023/07/16 12:46:02;;;;;;;3.58;2.40;;;;;;;;;;6213652;23;20090;-56
2023/07/16 12:48:31;;;;;;;3.22;2.38;;;;;;;;;;6214001;23;20024;-55
2023/07/16 12:50:58;;;;;;;2.85;2.20;;;;;;;;;;6214048;23;20463;-58
2023/07/16 12:53:25;;;;;;;3.70;2.28;;;;;;;;;;6213588;23;20032;-57
2023/07/16 12:55:53;;;;;;;4.30;2.50;;;;;;;;;;6213694;23;20052;-58
2023/07/16 12:58:20;;;;;;;3.30;2.28;;;;;;;;;;6214021;23;20021;-59
2023/07/16 13:00:46;;;;;;;3.92;2.28;;;;;;;;;;6214059;23;20407;-58
2023/07/16 13:03:16;;;;;;;4.55;2.30;;;;;;;;;;6214113;23;20027;-59
2023/07/16 13:05:45;;;;;;;3.53;2.25;;;;;;;;;;6214515;23;20035;-57
2023/07/16 13:08:12;;;;;;;3.13;1.92;;;;;;;;;;6214655;23;20071;-59
2023/07/16 13:10:40;;;;;;;4.60;2.65;;;;;;;;;;6212905;23;20067;-60
2023/07/16 13:13:08;;;;;;;4.20;2.50;;;;;;;;;;6212539;23;20641;-60
2023/07/16 13:15:40;;;;;;;4.15;2.67;;;;;;;;;;6213409;23;20031;-60
2023/07/16 13:18:10;;;;;;;3.00;2.03;;;;;;;;;;6214156;23;20021;-57
2023/07/16 13:20:37;;;;;;;5.03;2.67;;;;;;;;;;6213885;23;20075;-57
2023/07/16 13:23:05;;;;;;;4.85;2.50;;;;;;;;;;6212035;23;20017;-58
2023/07/16 13:25:32;;;;;;;3.15;2.20;;;;;;;;;;6213968;23;20534;-58
2023/07/16 13:27:58;;;;;;;4.43;2.60;;;;;;;;;;6213936;23;20044;-57
2023/07/16 13:30:29;;;;;;;3.95;2.20;;;;;;;;;;6214031;23;20027;-59
2023/07/16 13:32:56;;;;;;;3.83;2.65;;;;;;;;;;6212682;23;20032;-57
2023/07/16 13:35:23;;;;;;;3.47;2.20;;;;;;;;;;6212971;23;20071;-58
2023/07/16 13:37:50;;;;;;;3.72;2.42;;;;;;;;;;6212037;23;20086;-59
2023/07/16 13:40:19;;;;;;;3.42;2.40;;;;;;;;;;6213131;23;20071;-59
2023/07/16 13:42:46;;;;;;;3.95;2.80;;;;;;;;;;6213165;23;20025;-58
2023/07/16 13:45:13;;;;;;;3.60;2.35;;;;;;;;;;6213062;23;20515;-59
2023/07/16 13:47:40;;;;;;;4.28;2.65;;;;;;;;;;6213570;23;20107;-62
2023/07/16 13:50:08;;;;;;;3.70;2.42;;;;;;;;;;6213785;23;20024;-58
2023/07/16 13:52:35;;;;;;;4.40;2.33;;;;;;;;;;6213438;23;20028;-58
2023/07/16 13:55:03;;;;;;;3.60;2.33;;;;;;;;;;6213466;23;20028;-59
2023/07/16 13:57:31;;;;;;;3.50;2.58;;;;;;;;;;6214208;23;20028;-59
2023/07/16 13:59:58;;;;;;;4.50;2.67;;;;;;;;;;6215047;23;20490;-59
2023/07/16 14:02:25;;;;;;;4.38;2.30;;;;;;;;;;6215600;23;20028;-61
2023/07/16 14:04:52;;;;;;;3.30;2.33;;;;;;;;;;6215363;23;20021;-62
2023/07/16 14:07:18;;;;;;;3.55;2.60;;;;;;;;;;6215326;23;20052;-60
2023/07/16 14:09:45;;;;;;;4.15;2.33;;;;;;;;;;6215749;23;20024;-58
2023/07/16 14:12:12;;;;;;;4.13;2.67;;;;;;;;;;6215341;23;20028;-56
2023/07/16 14:14:40;;;;;;;3.53;2.50;;;;;;;;;;6215841;23;20087;-61
2023/07/16 14:17:07;;;;;;;3.60;2.65;;;;;;;;;;6215751;23;20091;-59
2023/07/16 14:19:34;;;;;;;3.50;2.40;;;;;;;;;;6215426;23;20456;-54
2023/07/16 14:22:01;;;;;;;3.72;2.50;;;;;;;;;;6215403;23;20020;-58
2023/07/16 14:24:28;;;;;;;4.25;2.58;;;;;;;;;;6215501;23;20028;-60
2023/07/16 14:26:54;;;;;;;4.13;2.70;;;;;;;;;;6215273;23;20516;-59
2023/07/16 14:29:21;;;;;;;3.72;2.60;;;;;;;;;;6215474;23;20047;-61
2023/07/16 14:31:49;;;;;;;4.03;2.28;;;;;;;;;;6215304;23;20455;-58
2023/07/16 14:34:16;;;;;;;4.10;2.35;;;;;;;;;;6214998;23;20025;-61
2023/07/16 14:36:43;;;;;;;5.35;3.03;;;;;;;;;;6215786;23;20021;-60
2023/07/16 14:39:10;;;;;;;3.72;2.47;;;;;;;;;;6215589;23;20074;-62
2023/07/16 14:41:37;;;;;;;4.13;2.50;;;;;;;;;;6215031;23;20025;-61
2023/07/16 14:44:05;;;;;;;3.45;2.45;;;;;;;;;;6214740;23;20460;-61
2023/07/16 14:46:32;;;;;;;4.25;2.60;;;;;;;;;;6215049;23;20025;-61